Time;durP1;ratioP1;P1;durP2;ratioP2;P2;SDS_P1;SDS_P2;PMS_P1;PMS_P2;Temp;Humidity;BMP_temperature;BMP_pressure;BME280_temperature;BME280_humidity;BME280_pressure;Samples;Min_cycle;Max_cycle;Signal;HPM_P1;HPM_P2
2023/01/19 00:01:33;;;;;;;14.52;9.65;;;;;;;;;;5020113;28;20041;-68
2023/01/19 00:03:58;;;;;;;13.93;9.80;;;;;;;;;;5037605;28;20049;-68
2023/01/19 00:06:24;;;;;;;13.23;8.40;;;;;;;;;;5020724;28;20061;-68
2023/01/19 00:08:49;;;;;;;9.30;5.72;;;;;;;;;;5021162;28;20049;-68
2023/01/19 00:11:18;;;;;;;14.93;8.27;;;;;;;;;;5019251;28;20509;-69
2023/01/19 00:13:50;;;;;;;8.10;5.50;;;;;;;;;;5022423;28;20045;-68
2023/01/19 00:16:17;;;;;;;12.40;7.88;;;;;;;;;;5022325;28;20088;-69
2023/01/19 00:18:46;;;;;;;10.65;6.22;;;;;;;;;;5021591;28;20143;-68
2023/01/19 00:21:13;;;;;;;11.35;7.43;;;;;;;;;;5021216;28;20045;-68
2023/01/19 00:23:39;;;;;;;11.40;5.10;;;;;;;;;;5022308;28;20861;-68
2023/01/19 00:26:05;;;;;;;10.00;6.10;;;;;;;;;;5021873;28;20036;-68
2023/01/19 00:28:30;;;;;;;5.05;4.47;;;;;;;;;;5020611;28;20054;-68
2023/01/19 00:30:56;;;;;;;6.30;4.97;;;;;;;;;;5035190;28;20072;-68
2023/01/19 00:33:21;;;;;;;15.40;8.88;;;;;;;;;;5037058;28;20568;-68
2023/01/19 00:35:56;;;;;;;13.82;8.93;;;;;;;;;;5021399;28;20041;-68
2023/01/19 00:38:22;;;;;;;12.85;7.10;;;;;;;;;;5021608;28;20064;-68
2023/01/19 00:40:48;;;;;;;19.05;7.95;;;;;;;;;;5019248;28;20041;-70
2023/01/19 00:43:13;;;;;;;13.32;9.23;;;;;;;;;;5019059;28;20060;-68
2023/01/19 00:45:39;;;;;;;15.45;8.73;;;;;;;;;;5021754;28;20515;-68
2023/01/19 00:48:05;;;;;;;15.85;8.52;;;;;;;;;;5021674;28;20132;-68
2023/01/19 00:50:31;;;;;;;12.27;7.80;;;;;;;;;;5019982;28;20058;-66
2023/01/19 00:52:59;;;;;;;11.15;5.80;;;;;;;;;;5021031;28;20052;-68
2023/01/19 00:55:27;;;;;;;11.73;7.85;;;;;;;;;;5021227;28;20042;-67
2023/01/19 00:57:53;;;;;;;15.60;8.35;;;;;;;;;;5036727;28;20098;-67
2023/01/19 01:00:20;;;;;;;12.73;7.65;;;;;;;;;;5020610;28;20053;-67
2023/01/19 01:02:47;;;;;;;11.00;7.40;;;;;;;;;;5020757;28;20120;-66
2023/01/19 01:05:13;;;;;;;11.10;6.47;;;;;;;;;;5021383;28;20554;-66
2023/01/19 01:07:40;;;;;;;16.10;7.85;;;;;;;;;;5021236;28;20059;-67
2023/01/19 01:10:26;;;;;;;8.05;5.43;;;;;;;;;;5021506;28;20412;-67
2023/01/19 01:12:52;;;;;;;6.93;4.18;;;;;;;;;;5019309;28;20087;-67
2023/01/19 01:15:18;;;;;;;14.20;7.90;;;;;;;;;;5020753;28;20052;-67
2023/01/19 01:17:47;;;;;;;13.82;7.70;;;;;;;;;;5021156;28;20060;-67
2023/01/19 01:20:19;;;;;;;9.63;7.03;;;;;;;;;;5020814;28;20137;-68
2023/01/19 01:22:46;;;;;;;13.77;6.78;;;;;;;;;;5021217;28;20045;-68
2023/01/19 01:25:17;;;;;;;13.82;7.93;;;;;;;;;;5019430;28;20128;-68
2023/01/19 01:27:42;;;;;;;11.30;6.47;;;;;;;;;;5021034;28;20414;-68
2023/01/19 01:30:10;;;;;;;17.92;6.88;;;;;;;;;;5019423;28;20049;-68
2023/01/19 01:32:36;;;;;;;16.02;8.20;;;;;;;;;;5015928;28;20037;-68
2023/01/19 01:35:03;;;;;;;12.48;7.68;;;;;;;;;;5033951;28;20052;-68
2023/01/19 01:37:28;;;;;;;10.18;6.00;;;;;;;;;;5017539;28;20051;-68
2023/01/19 01:39:54;;;;;;;15.50;8.63;;;;;;;;;;5018760;28;20038;-67
2023/01/19 01:42:26;;;;;;;10.85;7.28;;;;;;;;;;5018210;28;20068;-68
2023/01/19 01:44:52;;;;;;;;;;;;;;;;;;5020256;28;20494;-67
2023/01/19 01:47:37;;;;;;;11.35;7.57;;;;;;;;;;5019753;28;20279;-68
2023/01/19 01:50:13;;;;;;;12.20;6.57;;;;;;;;;;5020577;28;20087;-67
2023/01/19 01:52:45;;;;;;;12.77;5.45;;;;;;;;;;5019242;28;20057;-67
2023/01/19 01:55:11;;;;;;;13.18;8.70;;;;;;;;;;5019355;28;20049;-67
2023/01/19 01:57:43;;;;;;;16.50;9.05;;;;;;;;;;5020022;28;20076;-67
2023/01/19 02:00:10;;;;;;;17.83;9.90;;;;;;;;;;5020245;28;20073;-67
2023/01/19 02:02:51;;;;;;;12.63;7.50;;;;;;;;;;5018991;28;20060;-68
2023/01/19 02:05:27;;;;;;;12.52;6.85;;;;;;;;;;5033882;28;20049;-67
2023/01/19 02:14:09;;;;;;;13.35;7.97;;;;;;;;;;5019324;28;20129;-67
2023/01/19 02:16:36;;;;;;;18.20;9.95;;;;;;;;;;5017840;28;20144;-67
2023/01/19 02:19:03;;;;;;;11.65;6.47;;;;;;;;;;5019420;28;20061;-67
2023/01/19 02:21:55;;;;;;;16.92;8.45;;;;;;;;;;5019247;28;20057;-68
2023/01/19 02:24:20;;;;;;;18.52;6.68;;;;;;;;;;5010583;28;20045;-67
2023/01/19 02:26:47;;;;;;;12.82;7.30;;;;;;;;;;5019075;28;20422;-67
2023/01/19 02:29:19;;;;;;;7.60;5.18;;;;;;;;;;5019034;28;20053;-67
2023/01/19 02:31:45;;;;;;;;;;;;;;;;;;5019254;28;20510;-68
2023/01/19 02:34:14;;;;;;;6.13;4.28;;;;;;;;;;5014657;28;19921;-67
2023/01/19 02:36:54;;;;;;;13.32;6.50;;;;;;;;;;5018648;28;20139;-67
2023/01/19 02:39:35;;;;;;;12.43;6.90;;;;;;;;;;5018594;28;20049;-68
2023/01/19 02:42:26;;;;;;;14.55;6.38;;;;;;;;;;5016477;28;20052;-69
2023/01/19 02:44:54;;;;;;;9.90;6.95;;;;;;;;;;5008103;28;20103;-67
2023/01/19 02:47:19;;;;;;;9.27;6.68;;;;;;;;;;5018659;28;20080;-67
2023/01/19 02:49:56;;;;;;;10.15;6.53;;;;;;;;;;5019270;28;20079;-66
2023/01/19 02:52:22;;;;;;;15.98;8.48;;;;;;;;;;5018710;28;20057;-67
2023/01/19 02:55:00;;;;;;;12.85;8.90;;;;;;;;;;5019714;28;20045;-67
2023/01/19 02:58:07;;;;;;;14.43;9.05;;;;;;;;;;5047759;28;20056;-66
2023/01/19 03:01:04;;;;;;;16.70;9.60;;;;;;;;;;4996149;28;20073;-67
2023/01/19 03:03:53;;;;;;;21.60;9.30;;;;;;;;;;5011506;28;20445;-67
2023/01/19 03:06:43;;;;;;;18.48;8.75;;;;;;;;;;5015717;28;20053;-68
2023/01/19 03:09:49;;;;;;;9.40;5.97;;;;;;;;;;5017854;28;20049;-69
2023/01/19 03:12:23;;;;;;;15.70;8.88;;;;;;;;;;5004013;28;20052;-68
2023/01/19 03:14:49;;;;;;;16.75;9.73;;;;;;;;;;5018492;28;20053;-72
2023/01/19 03:17:17;;;;;;;15.23;7.45;;;;;;;;;;5019733;28;20050;-68
2023/01/19 03:19:46;;;;;;;16.10;9.07;;;;;;;;;;5018946;28;20049;-68
2023/01/19 03:22:25;;;;;;;11.65;7.35;;;;;;;;;;5017176;28;20048;-69
2023/01/19 03:24:54;;;;;;;19.35;8.43;;;;;;;;;;5018628;28;20086;-68
2023/01/19 03:27:32;;;;;;;15.15;7.32;;;;;;;;;;5018982;28;20596;-69
2023/01/19 03:30:06;;;;;;;14.30;9.60;;;;;;;;;;5019394;28;20049;-68
2023/01/19 03:32:36;;;;;;;13.52;7.90;;;;;;;;;;5017623;28;20052;-68
2023/01/19 03:35:08;;;;;;;11.30;6.82;;;;;;;;;;5018583;28;20045;-66
2023/01/19 03:37:38;;;;;;;7.30;5.15;;;;;;;;;;5023141;28;20136;-68
2023/01/19 03:40:04;;;;;;;15.57;9.40;;;;;;;;;;5023016;28;20049;-67
2023/01/19 03:42:29;;;;;;;11.85;6.75;;;;;;;;;;5033548;28;20084;-68
2023/01/19 03:44:58;;;;;;;9.43;6.63;;;;;;;;;;5037468;28;20450;-68
2023/01/19 03:47:24;;;;;;;16.02;8.38;;;;;;;;;;5022653;28;20064;-67
2023/01/19 03:49:51;;;;;;;5.68;4.07;;;;;;;;;;5021194;28;20041;-68
2023/01/19 03:52:17;;;;;;;11.57;6.57;;;;;;;;;;5021767;28;20049;-68
2023/01/19 03:54:42;;;;;;;13.00;7.95;;;;;;;;;;5021765;28;20426;-68
2023/01/19 03:57:08;;;;;;;8.55;5.47;;;;;;;;;;5021973;28;20130;-68
2023/01/19 03:59:34;;;;;;;9.98;5.80;;;;;;;;;;5022598;28;20521;-67
2023/01/19 04:02:00;;;;;;;5.70;3.88;;;;;;;;;;5020099;28;20505;-68
2023/01/19 04:04:25;;;;;;;5.00;4.50;;;;;;;;;;5022085;28;20081;-67
2023/01/19 04:06:50;;;;;;;9.15;6.50;;;;;;;;;;5021413;28;20056;-68
2023/01/19 04:09:16;;;;;;;8.90;6.32;;;;;;;;;;5022651;28;20077;-68
2023/01/19 04:11:41;;;;;;;11.10;5.15;;;;;;;;;;5021369;28;20080;-67
2023/01/19 04:14:07;;;;;;;7.43;5.13;;;;;;;;;;5022614;28;20049;-69
2023/01/19 04:16:32;;;;;;;7.18;3.83;;;;;;;;;;5021270;28;20065;-69
2023/01/19 04:18:57;;;;;;;10.30;5.30;;;;;;;;;;5022068;28;20045;-68
2023/01/19 04:21:23;;;;;;;9.95;4.75;;;;;;;;;;5021449;28;20077;-68
2023/01/19 04:23:48;;;;;;;7.57;4.03;;;;;;;;;;5022312;28;20045;-68
2023/01/19 04:26:14;;;;;;;5.82;4.40;;;;;;;;;;5020930;28;20061;-69
2023/01/19 04:28:39;;;;;;;7.47;4.35;;;;;;;;;;5037362;28;20045;-68
2023/01/19 04:31:07;;;;;;;12.85;8.05;;;;;;;;;;5020147;28;20056;-68
2023/01/19 04:33:33;;;;;;;9.25;6.60;;;;;;;;;;5018206;28;20073;-68
2023/01/19 04:35:58;;;;;;;10.68;6.35;;;;;;;;;;5021380;28;20612;-68
2023/01/19 04:38:25;;;;;;;9.18;6.80;;;;;;;;;;5020853;28;20949;-67
2023/01/19 04:40:52;;;;;;;8.15;5.53;;;;;;;;;;5020528;28;20047;-68
2023/01/19 04:43:18;;;;;;;12.00;6.35;;;;;;;;;;5021290;28;20079;-68
2023/01/19 04:45:45;;;;;;;8.63;5.25;;;;;;;;;;5021424;28;20042;-68
2023/01/19 04:48:12;;;;;;;9.32;6.25;;;;;;;;;;5019940;28;20191;-66
2023/01/19 04:50:37;;;;;;;7.35;4.57;;;;;;;;;;5019735;28;20605;-69
2023/01/19 04:53:03;;;;;;;10.52;6.03;;;;;;;;;;5036022;28;20140;-69
2023/01/19 04:55:28;;;;;;;11.52;7.05;;;;;;;;;;5021285;28;20045;-70
2023/01/19 04:57:54;;;;;;;9.55;5.63;;;;;;;;;;5037079;28;20383;-69
2023/01/19 05:00:20;;;;;;;7.32;5.13;;;;;;;;;;5019422;28;20098;-69
2023/01/19 05:02:46;;;;;;;8.85;6.15;;;;;;;;;;5019704;28;20051;-70
2023/01/19 05:05:12;;;;;;;10.60;5.53;;;;;;;;;;5019578;28;20053;-70
2023/01/19 05:07:37;;;;;;;10.15;5.75;;;;;;;;;;5019836;28;20041;-70
2023/01/19 05:10:05;;;;;;;10.90;5.82;;;;;;;;;;5020398;28;20048;-70
2023/01/19 05:12:31;;;;;;;5.00;4.03;;;;;;;;;;5018607;28;20046;-70
2023/01/19 05:14:56;;;;;;;7.00;5.05;;;;;;;;;;5018916;28;20037;-70
2023/01/19 05:17:21;;;;;;;8.90;6.05;;;;;;;;;;5019776;28;20115;-69
2023/01/19 05:19:47;;;;;;;10.57;4.90;;;;;;;;;;5018993;28;20041;-70
2023/01/19 05:22:14;;;;;;;9.02;6.22;;;;;;;;;;5016971;28;20140;-70
2023/01/19 05:24:39;;;;;;;10.55;7.10;;;;;;;;;;5019391;28;20464;-70
2023/01/19 05:27:05;;;;;;;8.55;5.53;;;;;;;;;;5019973;28;20049;-69
2023/01/19 05:29:30;;;;;;;9.43;5.60;;;;;;;;;;5019824;28;20049;-70
2023/01/19 05:31:56;;;;;;;10.23;7.07;;;;;;;;;;5020147;28;20107;-70
2023/01/19 05:34:22;;;;;;;8.13;5.68;;;;;;;;;;5018419;28;20045;-70
2023/01/19 05:36:47;;;;;;;11.20;7.32;;;;;;;;;;5019977;28;20497;-70
2023/01/19 05:39:13;;;;;;;6.05;5.20;;;;;;;;;;5018714;28;20041;-70
2023/01/19 05:41:38;;;;;;;12.95;7.80;;;;;;;;;;5035183;28;20042;-70
2023/01/19 05:44:04;;;;;;;13.68;6.55;;;;;;;;;;5020698;28;20037;-70
2023/01/19 05:46:29;;;;;;;14.45;7.82;;;;;;;;;;5020481;28;20041;-70
2023/01/19 05:48:55;;;;;;;13.18;7.53;;;;;;;;;;5020122;28;20045;-70
2023/01/19 05:51:20;;;;;;;13.65;7.80;;;;;;;;;;5018256;28;20046;-70
2023/01/19 05:53:45;;;;;;;12.20;7.30;;;;;;;;;;5019748;28;20064;-69
2023/01/19 05:56:11;;;;;;;10.77;7.45;;;;;;;;;;5018964;28;20041;-69
2023/01/19 05:58:38;;;;;;;12.55;6.72;;;;;;;;;;5018682;28;20045;-69
2023/01/19 06:01:05;;;;;;;13.43;8.00;;;;;;;;;;5016654;28;20128;-69
2023/01/19 06:03:32;;;;;;;9.00;6.78;;;;;;;;;;5018807;28;20045;-70
2023/01/19 06:05:58;;;;;;;11.70;6.63;;;;;;;;;;5019131;28;20057;-69
2023/01/19 06:08:23;;;;;;;12.30;7.35;;;;;;;;;;5019989;28;20052;-70
2023/01/19 06:10:49;;;;;;;11.80;6.38;;;;;;;;;;5018976;28;20049;-71
2023/01/19 06:13:14;;;;;;;9.80;7.03;;;;;;;;;;5034550;28;20049;-73
2023/01/19 06:15:41;;;;;;;17.13;7.72;;;;;;;;;;5032997;28;20049;-71
2023/01/19 06:18:07;;;;;;;13.43;7.53;;;;;;;;;;5031058;28;20053;-73
2023/01/19 06:20:32;;;;;;;11.45;7.57;;;;;;;;;;5017120;28;20037;-71
2023/01/19 06:22:58;;;;;;;10.98;7.90;;;;;;;;;;5015381;28;20072;-72
2023/01/19 06:25:24;;;;;;;10.32;7.78;;;;;;;;;;5030688;28;20063;-71
2023/01/19 06:27:50;;;;;;;11.90;7.78;;;;;;;;;;5030341;28;20061;-73
2023/01/19 06:30:16;;;;;;;13.65;8.60;;;;;;;;;;5018442;28;20455;-70
2023/01/19 06:32:42;;;;;;;14.15;8.65;;;;;;;;;;5019641;28;20049;-71
2023/01/19 06:35:07;;;;;;;10.85;6.85;;;;;;;;;;5019264;28;20047;-72
2023/01/19 06:37:34;;;;;;;13.27;8.32;;;;;;;;;;5020009;28;20107;-72
2023/01/19 06:40:00;;;;;;;11.40;8.10;;;;;;;;;;5019970;28;20084;-72
2023/01/19 06:42:25;;;;;;;14.27;9.00;;;;;;;;;;5019627;28;20084;-74
2023/01/19 06:44:50;;;;;;;13.02;8.82;;;;;;;;;;5019446;28;20049;-72
2023/01/19 06:47:16;;;;;;;10.88;7.28;;;;;;;;;;5019267;28;20104;-71
2023/01/19 06:49:42;;;;;;;14.60;8.70;;;;;;;;;;5019817;28;20604;-73
2023/01/19 06:52:10;;;;;;;10.30;7.40;;;;;;;;;;5019449;28;20046;-70
2023/01/19 06:54:35;;;;;;;13.18;9.18;;;;;;;;;;5035755;28;20584;-70
2023/01/19 06:57:01;;;;;;;13.82;9.07;;;;;;;;;;5019835;28;20068;-72
2023/01/19 06:59:26;;;;;;;13.77;9.98;;;;;;;;;;5035447;28;20050;-71
2023/01/19 07:01:51;;;;;;;15.30;9.85;;;;;;;;;;5018669;28;20131;-72
2023/01/19 07:04:17;;;;;;;17.00;9.48;;;;;;;;;;5020203;28;20517;-74
2023/01/19 07:06:42;;;;;;;15.40;8.20;;;;;;;;;;5020386;28;20057;-72
2023/01/19 07:09:10;;;;;;;13.52;8.18;;;;;;;;;;5035153;28;20049;-73
2023/01/19 07:11:36;;;;;;;7.93;5.65;;;;;;;;;;5037593;28;20037;-74
2023/01/19 07:14:02;;;;;;;13.85;8.45;;;;;;;;;;5024565;28;20111;-71
2023/01/19 07:16:28;;;;;;;16.85;9.38;;;;;;;;;;5023811;28;20048;-71
2023/01/19 07:18:54;;;;;;;15.50;8.25;;;;;;;;;;5038659;28;20045;-71
2023/01/19 07:21:20;;;;;;;12.32;8.90;;;;;;;;;;5023379;28;20119;-71
2023/01/19 07:23:52;;;;;;;10.18;7.00;;;;;;;;;;5022890;28;20053;-74
2023/01/19 07:26:20;;;;;;;12.77;8.43;;;;;;;;;;5023627;28;20064;-72
2023/01/19 07:28:46;;;;;;;13.30;9.30;;;;;;;;;;5023882;28;20418;-74
2023/01/19 07:31:11;;;;;;;10.95;7.03;;;;;;;;;;5037712;28;20561;-72
2023/01/19 07:33:37;;;;;;;14.05;7.78;;;;;;;;;;5022989;28;20041;-71
2023/01/19 07:36:02;;;;;;;10.45;6.25;;;;;;;;;;5039243;28;20030;-71
2023/01/19 07:38:27;;;;;;;14.45;8.93;;;;;;;;;;5023962;28;20694;-71
2023/01/19 07:41:04;;;;;;;13.60;9.45;;;;;;;;;;5022573;28;20581;-71
2023/01/19 07:43:30;;;;;;;12.95;7.00;;;;;;;;;;5023613;28;20049;-71
2023/01/19 07:46:00;;;;;;;17.92;9.35;;;;;;;;;;5022734;28;20115;-72
2023/01/19 07:48:25;;;;;;;15.27;10.02;;;;;;;;;;5023687;28;20057;-72
2023/01/19 07:50:51;;;;;;;14.65;8.68;;;;;;;;;;5022915;28;20422;-74
2023/01/19 07:53:17;;;;;;;11.77;7.90;;;;;;;;;;5023480;28;20490;-72
2023/01/19 07:55:43;;;;;;;13.30;9.23;;;;;;;;;;5022338;28;20049;-73
2023/01/19 07:58:08;;;;;;;15.38;9.13;;;;;;;;;;5023435;28;20040;-73
2023/01/19 08:00:35;;;;;;;14.10;8.07;;;;;;;;;;5023442;28;20052;-72
2023/01/19 08:03:03;;;;;;;13.93;7.60;;;;;;;;;;5022110;28;20063;-71
2023/01/19 08:05:28;;;;;;;12.25;7.78;;;;;;;;;;5038646;28;20053;-72
2023/01/19 08:07:56;;;;;;;13.38;7.03;;;;;;;;;;5021992;28;20052;-72
2023/01/19 08:10:25;;;;;;;13.27;8.25;;;;;;;;;;5023559;28;20042;-72
2023/01/19 08:12:54;;;;;;;11.48;6.93;;;;;;;;;;5022384;28;20060;-72
2023/01/19 08:15:22;;;;;;;18.65;9.00;;;;;;;;;;5022964;28;20045;-72
2023/01/19 08:17:59;;;;;;;10.48;7.15;;;;;;;;;;5037765;28;20099;-72
2023/01/19 08:20:26;;;;;;;14.18;8.50;;;;;;;;;;5022888;28;20052;-72
2023/01/19 08:22:58;;;;;;;11.23;7.30;;;;;;;;;;5019597;28;20140;-73
2023/01/19 08:25:31;;;;;;;7.75;5.20;;;;;;;;;;5023373;28;20053;-72
2023/01/19 08:27:57;;;;;;;9.75;4.38;;;;;;;;;;5023118;28;20234;-72
2023/01/19 08:30:25;;;;;;;10.65;7.25;;;;;;;;;;5022065;28;20042;-71
2023/01/19 08:32:52;;;;;;;13.75;7.88;;;;;;;;;;5022035;28;20057;-73
2023/01/19 08:35:17;;;;;;;10.07;6.75;;;;;;;;;;5022477;28;20049;-72
2023/01/19 08:37:43;;;;;;;11.30;7.18;;;;;;;;;;5022625;28;20155;-72
2023/01/19 08:40:08;;;;;;;6.72;4.25;;;;;;;;;;5022377;28;20025;-72
2023/01/19 08:42:34;;;;;;;11.05;6.35;;;;;;;;;;5021643;28;20060;-73
2023/01/19 08:44:59;;;;;;;11.35;7.53;;;;;;;;;;5022298;28;20037;-72
2023/01/19 08:47:25;;;;;;;6.00;5.07;;;;;;;;;;5022381;28;20041;-72
2023/01/19 08:49:50;;;;;;;9.23;7.53;;;;;;;;;;5022753;28;20581;-72
2023/01/19 08:52:15;;;;;;;12.73;7.68;;;;;;;;;;5020984;28;20041;-72
2023/01/19 08:54:41;;;;;;;12.45;5.75;;;;;;;;;;5022394;28;20041;-72
2023/01/19 08:57:06;;;;;;;6.18;4.55;;;;;;;;;;5021784;28;20045;-71
2023/01/19 08:59:31;;;;;;;7.55;4.93;;;;;;;;;;5022641;28;20144;-72
2023/01/19 09:01:57;;;;;;;12.60;7.82;;;;;;;;;;5020741;28;20057;-72
2023/01/19 09:04:23;;;;;;;6.40;4.00;;;;;;;;;;5021998;28;20513;-71
2023/01/19 09:06:49;;;;;;;10.50;6.72;;;;;;;;;;5021894;28;20046;-72
2023/01/19 09:09:14;;;;;;;8.55;6.18;;;;;;;;;;5037021;28;20058;-72
2023/01/19 09:11:39;;;;;;;10.20;7.47;;;;;;;;;;5021234;28;20068;-71
2023/01/19 09:14:05;;;;;;;11.48;6.60;;;;;;;;;;5021504;28;20052;-72
2023/01/19 09:16:31;;;;;;;5.35;4.55;;;;;;;;;;5022224;28;20044;-72
2023/01/19 09:18:57;;;;;;;11.15;7.00;;;;;;;;;;5021298;28;20140;-72
2023/01/19 09:21:22;;;;;;;6.38;3.88;;;;;;;;;;5021588;28;20080;-71
2023/01/19 09:23:48;;;;;;;9.55;6.22;;;;;;;;;;5019340;28;20045;-72
2023/01/19 09:26:13;;;;;;;7.97;5.68;;;;;;;;;;5021789;28;20096;-72
2023/01/19 09:28:39;;;;;;;8.77;4.38;;;;;;;;;;5021897;28;20145;-73
2023/01/19 09:31:06;;;;;;;10.68;6.22;;;;;;;;;;5020716;28;20041;-70
2023/01/19 09:33:32;;;;;;;10.95;5.20;;;;;;;;;;5019443;28;20049;-73
2023/01/19 09:35:57;;;;;;;9.68;6.38;;;;;;;;;;5020723;28;20045;-73
2023/01/19 09:38:24;;;;;;;8.07;5.90;;;;;;;;;;5021705;28;20151;-73
2023/01/19 09:40:53;;;;;;;7.22;4.18;;;;;;;;;;5036653;28;20228;-72
2023/01/19 09:43:33;;;;;;;12.80;6.55;;;;;;;;;;5020411;28;20053;-74
2023/01/19 09:46:01;;;;;;;8.68;6.47;;;;;;;;;;5020401;28;20513;-73
2023/01/19 09:48:51;;;;;;;7.65;5.82;;;;;;;;;;5036374;28;20049;-72
2023/01/19 09:51:31;;;;;;;8.00;5.57;;;;;;;;;;5018937;28;20083;-72
2023/01/19 09:54:02;;;;;;;10.90;5.20;;;;;;;;;;5021461;28;20043;-73
2023/01/19 09:56:29;;;;;;;8.68;6.00;;;;;;;;;;5020535;28;20413;-72
2023/01/19 09:58:54;;;;;;;10.10;4.80;;;;;;;;;;5020336;28;20049;-72
2023/01/19 10:01:53;;;;;;;8.57;5.35;;;;;;;;;;5020350;28;20056;-72
2023/01/19 10:04:35;;;;;;;9.82;5.20;;;;;;;;;;5020815;28;20057;-71
2023/01/19 10:07:09;;;;;;;7.68;5.75;;;;;;;;;;5035847;28;20498;-73
2023/01/19 10:09:51;;;;;;;9.55;5.80;;;;;;;;;;5020828;28;20053;-72
2023/01/19 10:12:28;;;;;;;10.18;5.60;;;;;;;;;;5020620;28;20037;-72
2023/01/19 10:15:02;;;;;;;10.52;5.70;;;;;;;;;;5020184;28;20414;-71
2023/01/19 10:17:52;;;;;;;11.20;5.82;;;;;;;;;;5021195;28;20068;-72
2023/01/19 10:20:28;;;;;;;9.70;6.18;;;;;;;;;;5035184;28;20045;-73
2023/01/19 10:22:55;;;;;;;13.18;6.35;;;;;;;;;;5019709;28;20124;-72
2023/01/19 10:25:24;;;;;;;9.10;5.70;;;;;;;;;;5019337;28;20057;-73
2023/01/19 10:27:49;;;;;;;8.73;5.50;;;;;;;;;;5020525;28;20131;-74
2023/01/19 10:30:22;;;;;;;10.27;5.65;;;;;;;;;;5020027;28;20041;-72
2023/01/19 10:32:49;;;;;;;8.35;5.55;;;;;;;;;;5020217;28;20049;-73
2023/01/19 10:35:22;;;;;;;8.70;5.68;;;;;;;;;;5020418;28;20054;-73
2023/01/19 10:37:48;;;;;;;11.85;6.45;;;;;;;;;;5020762;28;20258;-72
2023/01/19 10:40:27;;;;;;;9.05;5.20;;;;;;;;;;5019887;28;20033;-71
2023/01/19 10:42:55;;;;;;;8.98;6.65;;;;;;;;;;5019042;28;20050;-73
2023/01/19 10:45:23;;;;;;;8.48;6.05;;;;;;;;;;5019979;28;20052;-71
2023/01/19 10:47:49;;;;;;;7.80;4.30;;;;;;;;;;5020210;28;20498;-70
2023/01/19 10:50:25;;;;;;;3.85;3.00;;;;;;;;;;5020316;28;20098;-71
2023/01/19 10:52:52;;;;;;;8.10;5.72;;;;;;;;;;5018655;28;20045;-72
2023/01/19 10:55:28;;;;;;;10.18;6.90;;;;;;;;;;5020174;28;20057;-72
2023/01/19 10:57:55;;;;;;;8.80;6.13;;;;;;;;;;5020088;28;20125;-74
2023/01/19 11:00:39;;;;;;;7.43;5.07;;;;;;;;;;5020317;28;20053;-74
2023/01/19 11:03:23;;;;;;;6.78;5.20;;;;;;;;;;5012756;28;20045;-72
2023/01/19 11:05:49;;;;;;;7.43;5.90;;;;;;;;;;5035487;28;20293;-72
2023/01/19 11:08:27;;;;;;;6.95;5.28;;;;;;;;;;5020614;28;20045;-71
2023/01/19 11:10:57;;;;;;;9.57;6.03;;;;;;;;;;5019992;28;20054;-72
2023/01/19 11:13:23;;;;;;;6.68;4.40;;;;;;;;;;5018599;28;20064;-71
2023/01/19 11:15:56;;;;;;;7.15;5.07;;;;;;;;;;5020226;28;20719;-72
2023/01/19 11:18:36;;;;;;;9.65;5.70;;;;;;;;;;5020080;28;20058;-73
2023/01/19 11:21:05;;;;;;;8.18;5.90;;;;;;;;;;5019163;28;20566;-72
2023/01/19 11:23:30;;;;;;;10.68;6.10;;;;;;;;;;5019622;28;20502;-73
2023/01/19 11:25:59;;;;;;;9.82;6.45;;;;;;;;;;5034613;28;20046;-71
2023/01/19 11:28:34;;;;;;;7.57;5.60;;;;;;;;;;5024529;28;20045;-71
2023/01/19 11:31:30;;;;;;;10.18;5.70;;;;;;;;;;5019318;28;20065;-71
2023/01/19 11:34:02;;;;;;;12.45;5.70;;;;;;;;;;5016559;28;20524;-72
2023/01/19 11:36:29;;;;;;;6.73;4.63;;;;;;;;;;5017344;28;20081;-70
2023/01/19 11:38:56;;;;;;;8.90;5.10;;;;;;;;;;5017951;28;20147;-71
2023/01/19 11:41:35;;;;;;;7.20;5.30;;;;;;;;;;5018488;28;20053;-71
2023/01/19 11:44:19;;;;;;;8.48;5.40;;;;;;;;;;5019272;28;20037;-70
2023/01/19 11:46:51;;;;;;;5.70;4.75;;;;;;;;;;5006677;28;20297;-72
2023/01/19 11:49:28;;;;;;;9.98;5.85;;;;;;;;;;5017707;28;20077;-70
2023/01/19 11:52:31;;;;;;;8.38;5.45;;;;;;;;;;5033970;28;21225;-71
2023/01/19 11:55:05;;;;;;;8.00;5.70;;;;;;;;;;5033761;28;20135;-71
2023/01/19 11:57:31;;;;;;;8.10;4.70;;;;;;;;;;5020854;28;20045;-75
2023/01/19 12:00:02;;;;;;;6.60;5.07;;;;;;;;;;5022876;28;20055;-73
2023/01/19 12:02:42;;;;;;;9.27;5.90;;;;;;;;;;5022015;28;20050;-72
2023/01/19 12:05:13;;;;;;;9.27;4.07;;;;;;;;;;5022778;28;20044;-73
2023/01/19 12:07:42;;;;;;;6.18;4.97;;;;;;;;;;5023515;28;20107;-74
2023/01/19 12:10:25;;;;;;;6.22;4.40;;;;;;;;;;5020710;28;20045;-70
2023/01/19 12:12:51;;;;;;;9.40;5.05;;;;;;;;;;5035829;28;20305;-72
2023/01/19 12:15:25;;;;;;;11.77;6.00;;;;;;;;;;5020196;28;20037;-72
2023/01/19 12:17:53;;;;;;;8.93;5.82;;;;;;;;;;5020897;28;20591;-73
2023/01/19 12:20:29;;;;;;;9.73;6.22;;;;;;;;;;5020625;28;20060;-73
2023/01/19 12:23:10;;;;;;;7.10;5.03;;;;;;;;;;5020653;28;20037;-73
2023/01/19 12:26:12;;;;;;;7.35;4.45;;;;;;;;;;5022765;28;20045;-72
2023/01/19 12:28:41;;;;;;;24.92;3.63;;;;;;;;;;5022762;28;20158;-72
2023/01/19 12:31:07;;;;;;;7.40;5.10;;;;;;;;;;5035347;28;20080;-72
2023/01/19 12:33:36;;;;;;;9.43;5.50;;;;;;;;;;5020374;28;20049;-73
2023/01/19 12:36:37;;;;;;;6.47;4.25;;;;;;;;;;5021257;28;20095;-73
2023/01/19 12:39:23;;;;;;;7.88;5.38;;;;;;;;;;5019883;28;20041;-73
2023/01/19 12:42:06;;;;;;;4.22;3.20;;;;;;;;;;5034511;28;20048;-72
2023/01/19 12:44:33;;;;;;;5.85;4.45;;;;;;;;;;5021989;28;20045;-72
2023/01/19 12:47:15;;;;;;;8.25;4.70;;;;;;;;;;5020191;28;20051;-72
2023/01/19 12:49:43;;;;;;;6.97;4.82;;;;;;;;;;5020615;28;20049;-72
2023/01/19 12:52:26;;;;;;;4.70;3.63;;;;;;;;;;5018801;28;20070;-73
2023/01/19 12:54:55;;;;;;;6.22;3.90;;;;;;;;;;5020060;28;20051;-72
2023/01/19 12:57:38;;;;;;;6.65;4.57;;;;;;;;;;5020684;28;20053;-72
2023/01/19 13:00:38;;;;;;;6.28;3.95;;;;;;;;;;5021988;28;20144;-72
2023/01/19 13:03:24;;;;;;;4.90;3.80;;;;;;;;;;5019460;28;20045;-73
2023/01/19 13:05:55;;;;;;;4.38;2.90;;;;;;;;;;5008688;28;20063;-74
2023/01/19 13:08:41;;;;;;;8.70;4.43;;;;;;;;;;5036224;28;20040;-72
2023/01/19 13:11:16;;;;;;;5.43;4.32;;;;;;;;;;5020337;28;20060;-72
2023/01/19 13:14:02;;;;;;;5.00;3.63;;;;;;;;;;5020277;28;20388;-73
2023/01/19 13:16:27;;;;;;;4.72;3.30;;;;;;;;;;5019531;28;20046;-73
2023/01/19 13:19:04;;;;;;;7.13;4.30;;;;;;;;;;5019774;28;20091;-74
2023/01/19 13:21:38;;;;;;;5.53;4.13;;;;;;;;;;5048787;28;20506;-74
2023/01/19 13:24:16;;;;;;;7.85;4.20;;;;;;;;;;5021443;28;20498;-74
2023/01/19 13:26:47;;;;;;;5.80;3.72;;;;;;;;;;5019788;28;20045;-73
2023/01/19 13:29:21;;;;;;;8.07;3.70;;;;;;;;;;5019896;28;20491;-74
2023/01/19 13:31:47;;;;;;;8.38;4.40;;;;;;;;;;5017960;28;20045;-71
2023/01/19 13:34:17;;;;;;;5.63;4.32;;;;;;;;;;5036287;28;20161;-73
2023/01/19 13:36:45;;;;;;;8.57;4.55;;;;;;;;;;5020295;28;20362;-71
2023/01/19 13:39:36;;;;;;;6.25;4.35;;;;;;;;;;5020036;28;20108;-71
2023/01/19 13:42:38;;;;;;;6.35;3.85;;;;;;;;;;5019212;28;20302;-72
2023/01/19 13:45:26;;;;;;;5.77;4.07;;;;;;;;;;5018998;28;20045;-71
2023/01/19 13:47:53;;;;;;;6.05;3.95;;;;;;;;;;5017907;28;20100;-73
2023/01/19 13:50:21;;;;;;;4.13;2.95;;;;;;;;;;5019791;28;20049;-72
2023/01/19 13:52:49;;;;;;;5.38;4.00;;;;;;;;;;5019578;28;20107;-71
2023/01/19 13:55:15;;;;;;;5.25;3.40;;;;;;;;;;5017872;28;20137;-76
2023/01/19 13:57:44;;;;;;;10.88;3.35;;;;;;;;;;5018343;28;20042;-73
2023/01/19 14:00:15;;;;;;;4.95;3.53;;;;;;;;;;5015544;28;21043;-74
2023/01/19 14:02:52;;;;;;;6.80;3.25;;;;;;;;;;5018056;28;20475;-72
2023/01/19 14:05:34;;;;;;;3.72;2.95;;;;;;;;;;5020371;28;20060;-72
2023/01/19 14:08:12;;;;;;;5.22;3.53;;;;;;;;;;5017137;28;20127;-72
2023/01/19 14:10:53;;;;;;;4.35;2.80;;;;;;;;;;5017813;28;21138;-71
2023/01/19 14:13:24;;;;;;;5.70;2.67;;;;;;;;;;5017313;28;20089;-72
2023/01/19 14:15:59;;;;;;;3.13;2.83;;;;;;;;;;5020119;28;20049;-71
2023/01/19 14:18:30;;;;;;;4.05;2.80;;;;;;;;;;5020212;28;20053;-73
2023/01/19 14:21:07;;;;;;;7.32;3.03;;;;;;;;;;5018024;28;20061;-72
2023/01/19 14:23:44;;;;;;;4.47;3.13;;;;;;;;;;5045457;28;20053;-72
2023/01/19 14:26:47;;;;;;;4.03;2.70;;;;;;;;;;5017414;28;20483;-70
2023/01/19 14:29:16;;;;;;;5.68;3.20;;;;;;;;;;5019377;28;20120;-72
2023/01/19 14:31:50;;;;;;;4.63;3.10;;;;;;;;;;5017734;28;20089;-71
2023/01/19 14:34:32;;;;;;;4.30;3.30;;;;;;;;;;5019969;28;20049;-72
2023/01/19 14:36:58;;;;;;;3.80;3.10;;;;;;;;;;5029105;28;20041;-72
2023/01/19 14:39:26;;;;;;;4.60;2.90;;;;;;;;;;5018056;28;20145;-72
2023/01/19 14:41:55;;;;;;;3.10;2.75;;;;;;;;;;5017985;28;20045;-73
2023/01/19 14:44:29;;;;;;;3.33;3.03;;;;;;;;;;5018089;28;20049;-71
2023/01/19 14:46:55;;;;;;;5.30;3.22;;;;;;;;;;5013245;28;20103;-74
2023/01/19 14:49:45;;;;;;;4.40;2.50;;;;;;;;;;5024492;28;20060;-71
2023/01/19 14:52:25;;;;;;;5.40;2.55;;;;;;;;;;5018572;28;20386;-72
2023/01/19 14:54:52;;;;;;;2.80;2.22;;;;;;;;;;5019083;28;20046;-72
2023/01/19 14:57:17;;;;;;;4.03;2.63;;;;;;;;;;5018531;28;20065;-71
2023/01/19 14:59:47;;;;;;;3.95;2.58;;;;;;;;;;5019552;28;20081;-71
2023/01/19 15:02:12;;;;;;;5.93;2.70;;;;;;;;;;5015749;28;20049;-70